createdAt,value
2023-10-05T00:00:33.538Z,20.6
2023-10-05T00:15:33.546Z,20.6
2023-10-05T00:30:33.772Z,20.5
2023-10-05T00:45:33.646Z,20.5
2023-10-05T01:00:33.283Z,20.5
2023-10-05T01:15:32.868Z,20.5
2023-10-05T01:30:33.598Z,20.5
2023-10-05T01:45:33.799Z,20.5
2023-10-05T02:00:32.981Z,20.5
2023-10-05T02:15:33.632Z,20.5
2023-10-05T02:30:34.075Z,20.6
2023-10-05T02:45:32.337Z,20.6
2023-10-05T03:00:32.688Z,20.6
2023-10-05T03:15:32.781Z,20.6
2023-10-05T03:30:33.196Z,20.7
2023-10-05T03:45:32.513Z,20.7
2023-10-05T04:00:33.210Z,20.7
2023-10-05T04:15:33.208Z,20.7
2023-10-05T04:30:32.674Z,20.7
2023-10-05T04:45:32.852Z,20.8
2023-10-05T05:00:33.584Z,20.8
2023-10-05T05:15:33.597Z,20.8
2023-10-05T05:30:32.818Z,20.8
2023-10-05T05:45:33.442Z,20.9
2023-10-05T06:00:33.185Z,20.9
2023-10-05T06:15:33.043Z,21.0
2023-10-05T06:30:33.924Z,21
2023-10-05T06:45:34.869Z,21.1
2023-10-05T07:00:32.630Z,21.2
2023-10-05T07:15:33.385Z,21.3
2023-10-05T07:30:32.698Z,21.4
2023-10-05T07:45:32.655Z,21.5
2023-10-05T08:00:33.691Z,21.6
2023-10-05T08:15:33.249Z,21.7
2023-10-05T08:30:33.391Z,21.7
2023-10-05T08:45:32.735Z,21.8
2023-10-05T09:00:33.433Z,21.8
2023-10-05T09:15:32.995Z,21.9
2023-10-05T09:30:33.402Z,22.0
2023-10-05T09:45:32.825Z,22.1
2023-10-05T10:00:33.089Z,22.1
2023-10-05T10:15:33.152Z,22.2
2023-10-05T10:30:33.533Z,22.2
2023-10-05T10:45:33.641Z,22.3
2023-10-05T11:00:33.341Z,22.3
2023-10-05T11:15:32.999Z,22.3
2023-10-05T11:30:41.592Z,22.3
2023-10-05T11:45:33.745Z,22.4
2023-10-05T12:00:32.956Z,22.4
2023-10-05T12:15:32.862Z,22.4
2023-10-05T12:30:33.508Z,22.4
2023-10-05T12:45:32.865Z,22.4
2023-10-05T13:00:33.694Z,22.5
2023-10-05T13:15:32.706Z,22.5
2023-10-05T13:30:33.198Z,22.5
2023-10-05T13:45:32.873Z,22.4
2023-10-05T14:00:33.148Z,22.4
2023-10-05T14:15:33.432Z,22.4
2023-10-05T14:30:33.009Z,22.3
2023-10-05T14:45:33.220Z,22.3
2023-10-05T15:00:32.858Z,22.2
2023-10-05T15:15:33.306Z,22.1
2023-10-05T15:30:33.456Z,21.9
2023-10-05T15:45:33.477Z,21.9
2023-10-05T16:00:33.719Z,21.7
2023-10-05T16:15:33.698Z,21.7
2023-10-05T16:30:33.459Z,21.5
2023-10-05T16:45:33.074Z,21.5
2023-10-05T17:00:33.597Z,21.4
2023-10-05T17:15:32.990Z,21.3
2023-10-05T17:30:32.796Z,21.2
2023-10-05T17:45:33.427Z,21.2
2023-10-05T18:00:32.846Z,21.1
2023-10-05T18:15:33.267Z,21.1
2023-10-05T18:30:32.941Z,21.0
2023-10-05T18:45:33.645Z,21
2023-10-05T19:00:33.127Z,20.9
2023-10-05T19:15:32.696Z,20.9
2023-10-05T19:30:32.920Z,20.9
2023-10-05T19:45:33.163Z,20.9
2023-10-05T20:00:33.092Z,20.8
2023-10-05T20:15:32.992Z,20.8
2023-10-05T20:30:33.263Z,20.8
2023-10-05T20:45:33.356Z,20.8
2023-10-05T21:00:33.373Z,20.7
2023-10-05T21:15:32.840Z,20.7
2023-10-05T21:30:32.799Z,20.7
2023-10-05T21:45:32.613Z,20.7
2023-10-05T22:00:33.742Z,20.7
2023-10-05T22:15:32.874Z,20.6
2023-10-05T22:30:32.820Z,20.6
2023-10-05T22:45:33.254Z,20.6
2023-10-05T23:00:33.611Z,20.6
2023-10-05T23:15:32.952Z,20.6
2023-10-05T23:30:33.439Z,20.6
2023-10-05T23:45:32.987Z,20.6
